createdAt,value
2022-09-14T00:04:49.249Z,12.84
2022-09-14T00:10:14.157Z,12.89
2022-09-14T00:15:38.785Z,12.96
2022-09-14T00:21:06.875Z,13.00
2022-09-14T00:26:32.959Z,12.90
2022-09-14T00:31:59.283Z,12.83
2022-09-14T00:37:25.577Z,12.73
2022-09-14T00:42:52.230Z,12.69
2022-09-14T00:48:16.934Z,12.67
2022-09-14T00:53:42.304Z,12.68
2022-09-14T00:59:14.511Z,12.69
2022-09-14T01:04:40.399Z,12.57
2022-09-14T01:10:17.423Z,12.51
2022-09-14T01:15:52.925Z,12.47
2022-09-14T01:21:21.689Z,12.39
2022-09-14T01:27:21.099Z,12.31
2022-09-14T01:32:52.133Z,12.28
2022-09-14T01:38:21.379Z,12.25
2022-09-14T01:43:54.135Z,12.25
2022-09-14T01:49:24.208Z,12.28
2022-09-14T01:54:53.885Z,12.25
2022-09-14T02:00:23.333Z,12.21
2022-09-14T02:05:55.631Z,12.28
2022-09-14T02:11:21.028Z,12.25
2022-09-14T02:16:47.178Z,12.27
2022-09-14T02:22:11.660Z,12.19
2022-09-14T02:27:40.419Z,12.10
2022-09-14T02:33:12.344Z,12.13
2022-09-14T02:38:46.823Z,12.11
2022-09-14T02:44:19.876Z,12.06
2022-09-14T02:49:53.322Z,12.05
2022-09-14T02:55:20.926Z,11.73
2022-09-14T03:00:48.311Z,11.70
2022-09-14T03:06:14.652Z,11.58
2022-09-14T03:11:39.054Z,11.55
2022-09-14T03:17:03.774Z,11.45
2022-09-14T03:22:30.892Z,11.35
2022-09-14T03:27:59.065Z,11.21
2022-09-14T03:33:25.119Z,11.21
2022-09-14T03:38:51.600Z,11.12
2022-09-14T03:44:17.564Z,11.11
2022-09-14T03:49:41.576Z,11.18
2022-09-14T03:55:09.704Z,11.29
2022-09-14T04:00:34.123Z,11.38
2022-09-14T04:05:58.764Z,11.57
2022-09-14T04:11:26.232Z,11.66
2022-09-14T04:16:51.002Z,11.71
2022-09-14T04:22:15.258Z,11.81
2022-09-14T04:27:41.223Z,11.88
2022-09-14T04:33:06.063Z,11.95
2022-09-14T04:38:30.853Z,11.98
2022-09-14T04:43:57.447Z,12.00
2022-09-14T04:49:21.736Z,11.99
2022-09-14T04:54:49.832Z,12.15
2022-09-14T05:00:16.004Z,12.22
2022-09-14T05:05:44.312Z,12.26
2022-09-14T05:11:10.695Z,11.96
2022-09-14T05:16:38.480Z,12.11
2022-09-14T05:22:02.309Z,12.33
2022-09-14T05:27:27.503Z,12.05
2022-09-14T05:32:57.984Z,12.18
2022-09-14T05:38:24.511Z,12.14
2022-09-14T05:43:48.766Z,12.27
2022-09-14T05:49:14.703Z,12.31
2022-09-14T05:54:39.132Z,12.39
2022-09-14T06:00:04.844Z,12.31
2022-09-14T06:05:38.912Z,12.18
2022-09-14T06:11:07.728Z,12.09
2022-09-14T06:16:32.201Z,12.10
2022-09-14T06:21:57.826Z,12.14
2022-09-14T06:27:22.940Z,12.25
2022-09-14T06:32:47.560Z,12.28
2022-09-14T06:38:14.989Z,12.42
2022-09-14T06:43:42.747Z,12.64
2022-09-14T06:49:10.588Z,12.86
2022-09-14T06:54:36.277Z,12.93
2022-09-14T07:00:02.422Z,12.99
2022-09-14T07:05:27.257Z,12.92
2022-09-14T07:10:59.099Z,13.00
2022-09-14T07:16:23.989Z,12.99
2022-09-14T07:21:48.461Z,13.06
2022-09-14T07:27:14.351Z,13.14
2022-09-14T07:32:38.804Z,13.74
2022-09-14T07:38:02.975Z,13.54
2022-09-14T07:43:28.952Z,13.67
2022-09-14T07:48:57.009Z,13.73
2022-09-14T07:54:22.348Z,13.98
2022-09-14T07:59:48.214Z,13.94
2022-09-14T08:05:13.417Z,14.15
2022-09-14T08:10:37.936Z,13.94
2022-09-14T08:16:04.039Z,14.15
2022-09-14T08:21:30.226Z,13.99
2022-09-14T08:26:54.974Z,14.43
2022-09-14T08:32:20.405Z,14.43
2022-09-14T08:37:45.069Z,14.51
2022-09-14T08:43:12.488Z,14.73
2022-09-14T08:48:42.731Z,14.37
2022-09-14T08:54:11.526Z,14.60
2022-09-14T08:59:47.971Z,14.81
2022-09-14T09:05:31.093Z,14.10
2022-09-14T09:10:59.270Z,14.41
2022-09-14T09:16:28.029Z,14.54
2022-09-14T09:21:54.183Z,14.50
2022-09-14T09:27:18.757Z,14.66
2022-09-14T09:32:43.378Z,14.28
2022-09-14T09:38:33.676Z,14.06
2022-09-14T09:44:01.148Z,14.16
2022-09-14T09:49:28.885Z,14.31
2022-09-14T09:54:56.970Z,14.47
2022-09-14T10:00:24.490Z,14.35
2022-09-14T10:06:02.100Z,14.47
2022-09-14T10:11:37.750Z,14.41
2022-09-14T10:17:08.213Z,14.56
2022-09-14T10:22:33.646Z,14.49
2022-09-14T10:28:01.443Z,14.44
2022-09-14T10:33:26.722Z,14.53
2022-09-14T10:38:53.482Z,14.50
2022-09-14T10:44:45.044Z,14.89
2022-09-14T10:50:28.447Z,14.91
2022-09-14T10:56:01.537Z,15.17
2022-09-14T11:01:39.635Z,15.45
2022-09-14T11:07:12.519Z,15.85
2022-09-14T11:18:22.587Z,16.46
2022-09-14T11:23:52.484Z,16.67
2022-09-14T11:29:22.401Z,16.68
2022-09-14T11:34:54.861Z,16.70
2022-09-14T11:40:29.111Z,17.30
2022-09-14T11:45:57.452Z,16.88
2022-09-14T11:51:28.509Z,17.13
2022-09-14T11:56:56.203Z,16.96
2022-09-14T12:03:01.147Z,17.04
2022-09-14T12:08:40.674Z,17.43
2022-09-14T12:14:31.846Z,16.94
2022-09-14T12:20:00.837Z,17.06
2022-09-14T12:25:26.944Z,17.26
2022-09-14T12:31:12.262Z,17.59
2022-09-14T12:37:11.951Z,17.70
2022-09-14T12:42:38.418Z,17.31
2022-09-14T12:48:03.907Z,17.67
2022-09-14T12:53:32.964Z,18.00
2022-09-14T12:59:07.291Z,18.02
2022-09-14T13:04:35.189Z,18.05
2022-09-14T13:10:02.771Z,18.41
2022-09-14T13:15:35.122Z,18.62
2022-09-14T13:21:02.760Z,18.41
2022-09-14T13:26:29.833Z,18.34
2022-09-14T13:32:03.558Z,18.09
2022-09-14T13:37:28.737Z,17.79
2022-09-14T13:42:54.722Z,18.12
2022-09-14T13:48:22.604Z,18.90
2022-09-14T13:53:49.925Z,18.80
2022-09-14T13:59:24.840Z,18.46
2022-09-14T14:04:51.678Z,18.31
2022-09-14T14:10:25.975Z,18.14
2022-09-14T14:15:50.515Z,18.15
2022-09-14T14:21:28.640Z,18.17
2022-09-14T14:26:55.158Z,18.05
2022-09-14T14:32:19.565Z,17.90
2022-09-14T14:37:45.868Z,17.89
2022-09-14T14:43:17.306Z,17.73
2022-09-14T14:48:43.098Z,17.67
2022-09-14T14:54:10.221Z,17.58
2022-09-14T14:59:34.734Z,17.51
2022-09-14T15:05:00.144Z,17.48
2022-09-14T15:10:28.703Z,17.42
2022-09-14T15:15:52.686Z,17.34
2022-09-14T15:21:16.751Z,17.25
2022-09-14T15:26:42.297Z,17.18
2022-09-14T15:32:06.900Z,17.13
2022-09-14T15:37:30.783Z,17.08
2022-09-14T15:42:56.895Z,17.05
2022-09-14T15:48:21.178Z,16.98
2022-09-14T15:53:46.173Z,16.85
2022-09-14T15:59:12.940Z,16.68
2022-09-14T16:04:37.768Z,16.53
2022-09-14T16:10:02.673Z,16.44
2022-09-14T16:15:28.125Z,16.29
2022-09-14T16:20:52.441Z,16.17
2022-09-14T16:26:19.915Z,16.07
2022-09-14T16:31:47.294Z,16.03
2022-09-14T16:37:11.464Z,15.96
2022-09-14T16:42:35.502Z,16.09
2022-09-14T16:48:00.990Z,16.11
2022-09-14T16:53:25.316Z,16.15
2022-09-14T16:58:50.786Z,16.14
2022-09-14T17:04:21.593Z,16.19
2022-09-14T17:09:46.020Z,16.22
2022-09-14T17:15:12.505Z,16.30
2022-09-14T17:20:39.951Z,16.35
2022-09-14T17:26:06.842Z,16.39
2022-09-14T17:31:32.379Z,16.38
2022-09-14T17:36:57.556Z,16.31
2022-09-14T17:42:22.509Z,16.30
2022-09-14T17:47:48.779Z,16.24
2022-09-14T17:53:15.641Z,16.32
2022-09-14T17:58:39.761Z,16.36
2022-09-14T18:04:08.546Z,16.40
2022-09-14T18:09:33.892Z,16.34
2022-09-14T18:14:59.186Z,16.39
2022-09-14T18:20:23.311Z,16.41
2022-09-14T18:25:50.402Z,16.50
2022-09-14T18:31:16.378Z,16.50
2022-09-14T18:36:41.237Z,16.53
2022-09-14T18:42:10.471Z,16.48
2022-09-14T18:47:34.721Z,16.47
2022-09-14T18:52:59.838Z,16.39
2022-09-14T18:58:26.982Z,16.26
2022-09-14T19:03:53.847Z,16.14
2022-09-14T19:09:19.853Z,16.10
2022-09-14T19:14:45.898Z,16.05
2022-09-14T19:20:12.189Z,16.04
2022-09-14T19:25:38.618Z,16.01
2022-09-14T19:31:08.058Z,15.97
2022-09-14T19:36:34.773Z,16.07
2022-09-14T19:42:00.610Z,16.15
2022-09-14T19:47:26.472Z,16.16
2022-09-14T19:52:51.330Z,16.14
2022-09-14T19:58:16.503Z,16.05
2022-09-14T20:03:44.783Z,15.99
2022-09-14T20:09:11.860Z,15.94
2022-09-14T20:14:36.707Z,15.89
2022-09-14T20:20:30.447Z,15.88
2022-09-14T20:25:56.217Z,15.86
2022-09-14T20:31:20.482Z,15.82
2022-09-14T20:36:45.042Z,15.80
2022-09-14T20:42:10.640Z,15.80
2022-09-14T20:47:36.450Z,15.76
2022-09-14T20:53:01.619Z,15.68
2022-09-14T20:58:27.222Z,15.62
2022-09-14T21:03:53.590Z,15.59
2022-09-14T21:09:19.109Z,15.55
2022-09-14T21:14:45.149Z,15.50
2022-09-14T21:20:09.593Z,15.49
2022-09-14T21:25:34.632Z,15.48
2022-09-14T21:31:09.319Z,15.44
2022-09-14T21:36:35.215Z,15.43
2022-09-14T21:42:02.273Z,15.42
2022-09-14T21:47:27.854Z,15.41
2022-09-14T21:52:52.562Z,15.38
2022-09-14T21:58:17.287Z,15.35
2022-09-14T22:03:45.188Z,15.35
2022-09-14T22:09:09.726Z,15.30
2022-09-14T22:14:35.658Z,15.23
2022-09-14T22:20:01.732Z,15.23
2022-09-14T22:25:28.207Z,15.22
2022-09-14T22:30:55.357Z,15.22
2022-09-14T22:36:24.197Z,15.17
2022-09-14T22:41:49.122Z,15.14
2022-09-14T22:47:14.804Z,15.08
2022-09-14T22:52:40.156Z,15.09
2022-09-14T22:58:05.697Z,15.06
2022-09-14T23:03:32.368Z,15.09
2022-09-14T23:08:58.429Z,15.06
2022-09-14T23:14:23.360Z,15.13
2022-09-14T23:19:47.285Z,15.05
2022-09-14T23:25:12.815Z,15.10
2022-09-14T23:30:36.913Z,15.01
2022-09-14T23:36:00.630Z,15.03
2022-09-14T23:41:27.468Z,15.03
2022-09-14T23:46:52.670Z,15.00
2022-09-14T23:52:16.568Z,14.99
2022-09-14T23:57:42.244Z,14.96
